sensor_id;sensor_type;location;lat;lon;timestamp;temperature;humidity
7684;DHT22;3884;48.616;12.872;2022-08-25T00:02:04;17.10;28.30
7684;DHT22;3884;48.616;12.872;2022-08-25T00:04:32;17.20;1.00
7684;DHT22;3884;48.616;12.872;2022-08-25T00:07:00;17.20;1.00
7684;DHT22;3884;48.616;12.872;2022-08-25T00:09:29;17.20;1.00
7684;DHT22;3884;48.616;12.872;2022-08-25T00:11:56;17.10;99.90
7684;DHT22;3884;48.616;12.872;2022-08-25T00:14:29;17.00;1.00
7684;DHT22;3884;48.616;12.872;2022-08-25T00:16:56;16.90;99.90
7684;DHT22;3884;48.616;12.872;2022-08-25T00:19:26;16.80;75.20
7684;DHT22;3884;48.616;12.872;2022-08-25T00:21:53;16.90;99.90
7684;DHT22;3884;48.616;12.872;2022-08-25T00:24:20;17.00;1.00
7684;DHT22;3884;48.616;12.872;2022-08-25T00:26:50;17.10;1.00
7684;DHT22;3884;48.616;12.872;2022-08-25T00:29:17;17.00;99.90
7684;DHT22;3884;48.616;12.872;2022-08-25T00:31:46;16.90;99.90
7684;DHT22;3884;48.616;12.872;2022-08-25T00:34:19;16.90;1.00
7684;DHT22;3884;48.616;12.872;2022-08-25T00:36:47;16.90;1.00
7684;DHT22;3884;48.616;12.872;2022-08-25T00:39:15;16.80;6.60
7684;DHT22;3884;48.616;12.872;2022-08-25T00:41:42;16.80;1.00
7684;DHT22;3884;48.616;12.872;2022-08-25T00:44:11;16.90;1.00
7684;DHT22;3884;48.616;12.872;2022-08-25T00:46:41;16.90;1.00
7684;DHT22;3884;48.616;12.872;2022-08-25T00:49:12;16.80;1.00
7684;DHT22;3884;48.616;12.872;2022-08-25T00:51:42;16.80;1.00
7684;DHT22;3884;48.616;12.872;2022-08-25T00:54:14;16.80;99.90
7684;DHT22;3884;48.616;12.872;2022-08-25T00:56:42;16.80;33.00
7684;DHT22;3884;48.616;12.872;2022-08-25T00:59:10;16.70;52.60
7684;DHT22;3884;48.616;12.872;2022-08-25T01:01:37;16.60;99.90
7684;DHT22;3884;48.616;12.872;2022-08-25T01:04:04;16.60;99.90
7684;DHT22;3884;48.616;12.872;2022-08-25T01:06:36;16.60;17.80
7684;DHT22;3884;48.616;12.872;2022-08-25T01:09:05;16.60;1.00
7684;DHT22;3884;48.616;12.872;2022-08-25T01:11:33;16.70;1.00
7684;DHT22;3884;48.616;12.872;2022-08-25T01:14:00;16.60;1.00
7684;DHT22;3884;48.616;12.872;2022-08-25T01:16:32;16.60;1.00
7684;DHT22;3884;48.616;12.872;2022-08-25T01:18:59;16.50;99.90
7684;DHT22;3884;48.616;12.872;2022-08-25T01:21:30;16.50;99.90
7684;DHT22;3884;48.616;12.872;2022-08-25T01:23:59;16.40;99.90
7684;DHT22;3884;48.616;12.872;2022-08-25T01:26:29;16.40;1.00
7684;DHT22;3884;48.616;12.872;2022-08-25T01:28:57;16.50;1.00
7684;DHT22;3884;48.616;12.872;2022-08-25T01:31:42;16.30;1.00
7684;DHT22;3884;48.616;12.872;2022-08-25T01:34:10;16.30;17.80
7684;DHT22;3884;48.616;12.872;2022-08-25T01:36:39;16.30;99.90
7684;DHT22;3884;48.616;12.872;2022-08-25T01:39:07;16.30;97.40
7684;DHT22;3884;48.616;12.872;2022-08-25T01:41:39;16.30;33.50
7684;DHT22;3884;48.616;12.872;2022-08-25T01:44:07;16.40;73.10
7684;DHT22;3884;48.616;12.872;2022-08-25T01:46:34;16.40;1.00
7684;DHT22;3884;48.616;12.872;2022-08-25T01:49:02;16.30;1.00
7684;DHT22;3884;48.616;12.872;2022-08-25T01:51:34;16.30;1.00
7684;DHT22;3884;48.616;12.872;2022-08-25T01:54:04;16.30;1.00
7684;DHT22;3884;48.616;12.872;2022-08-25T01:56:31;16.20;1.00
7684;DHT22;3884;48.616;12.872;2022-08-25T01:58:58;16.20;1.00
7684;DHT22;3884;48.616;12.872;2022-08-25T02:01:25;16.20;1.00
7684;DHT22;3884;48.616;12.872;2022-08-25T02:03:54;16.10;1.00
7684;DHT22;3884;48.616;12.872;2022-08-25T02:06:24;16.10;99.90
7684;DHT22;3884;48.616;12.872;2022-08-25T02:08:54;16.20;99.90
7684;DHT22;3884;48.616;12.872;2022-08-25T02:11:24;16.10;99.90
7684;DHT22;3884;48.616;12.872;2022-08-25T02:13:52;16.10;99.90
7684;DHT22;3884;48.616;12.872;2022-08-25T02:16:22;16.10;99.90
7684;DHT22;3884;48.616;12.872;2022-08-25T02:18:50;16.10;99.90
7684;DHT22;3884;48.616;12.872;2022-08-25T02:21:17;16.10;1.00
7684;DHT22;3884;48.616;12.872;2022-08-25T02:23:44;16.00;70.80
7684;DHT22;3884;48.616;12.872;2022-08-25T02:26:14;16.10;93.80
7684;DHT22;3884;48.616;12.872;2022-08-25T02:28:45;16.10;1.00
7684;DHT22;3884;48.616;12.872;2022-08-25T02:31:13;15.90;1.00
7684;DHT22;3884;48.616;12.872;2022-08-25T02:33:39;15.90;64.20
7684;DHT22;3884;48.616;12.872;2022-08-25T02:36:07;16.00;1.00
7684;DHT22;3884;48.616;12.872;2022-08-25T02:38:35;16.10;1.00
7684;DHT22;3884;48.616;12.872;2022-08-25T02:41:10;16.00;1.00
7684;DHT22;3884;48.616;12.872;2022-08-25T02:43:38;15.90;1.00
7684;DHT22;3884;48.616;12.872;2022-08-25T02:46:08;15.80;1.00
7684;DHT22;3884;48.616;12.872;2022-08-25T02:48:35;15.70;99.90
7684;DHT22;3884;48.616;12.872;2022-08-25T02:51:03;15.70;99.90
7684;DHT22;3884;48.616;12.872;2022-08-25T02:53:32;15.80;99.90
7684;DHT22;3884;48.616;12.872;2022-08-25T02:55:59;15.90;99.90
7684;DHT22;3884;48.616;12.872;2022-08-25T02:58:26;15.90;86.10
7684;DHT22;3884;48.616;12.872;2022-08-25T03:00:53;15.90;41.30
7684;DHT22;3884;48.616;12.872;2022-08-25T03:03:22;15.80;31.90
7684;DHT22;3884;48.616;12.872;2022-08-25T03:05:49;15.80;1.00
7684;DHT22;3884;48.616;12.872;2022-08-25T03:08:16;15.80;1.00
7684;DHT22;3884;48.616;12.872;2022-08-25T03:10:43;15.70;37.70
7684;DHT22;3884;48.616;12.872;2022-08-25T03:13:10;15.60;99.90
7684;DHT22;3884;48.616;12.872;2022-08-25T03:15:37;15.60;99.90
7684;DHT22;3884;48.616;12.872;2022-08-25T03:18:04;15.70;99.90
7684;DHT22;3884;48.616;12.872;2022-08-25T03:20:33;15.70;99.90
7684;DHT22;3884;48.616;12.872;2022-08-25T03:23:01;15.70;99.90
7684;DHT22;3884;48.616;12.872;2022-08-25T03:25:28;15.60;99.90
7684;DHT22;3884;48.616;12.872;2022-08-25T03:28:11;15.60;99.90
7684;DHT22;3884;48.616;12.872;2022-08-25T03:30:39;15.60;99.90
7684;DHT22;3884;48.616;12.872;2022-08-25T03:33:06;15.70;99.90
7684;DHT22;3884;48.616;12.872;2022-08-25T03:35:34;15.70;1.00
7684;DHT22;3884;48.616;12.872;2022-08-25T03:38:04;15.60;1.00
7684;DHT22;3884;48.616;12.872;2022-08-25T03:40:31;15.60;99.90
7684;DHT22;3884;48.616;12.872;2022-08-25T03:42:58;15.50;99.90
7684;DHT22;3884;48.616;12.872;2022-08-25T03:45:25;15.50;99.90
7684;DHT22;3884;48.616;12.872;2022-08-25T03:47:52;15.50;99.90
7684;DHT22;3884;48.616;12.872;2022-08-25T03:50:20;15.60;99.90
7684;DHT22;3884;48.616;12.872;2022-08-25T03:52:52;15.60;99.90
7684;DHT22;3884;48.616;12.872;2022-08-25T03:55:21;15.60;99.90
7684;DHT22;3884;48.616;12.872;2022-08-25T03:57:49;15.40;99.90
7684;DHT22;3884;48.616;12.872;2022-08-25T04:00:17;15.30;99.90
7684;DHT22;3884;48.616;12.872;2022-08-25T04:02:44;15.30;99.90
7684;DHT22;3884;48.616;12.872;2022-08-25T04:05:11;15.30;99.90
7684;DHT22;3884;48.616;12.872;2022-08-25T04:07:38;15.30;99.90
7684;DHT22;3884;48.616;12.872;2022-08-25T04:10:08;15.20;99.90
7684;DHT22;3884;48.616;12.872;2022-08-25T04:12:36;15.30;99.90
7684;DHT22;3884;48.616;12.872;2022-08-25T04:15:03;15.40;99.90
7684;DHT22;3884;48.616;12.872;2022-08-25T04:17:31;15.50;99.90
7684;DHT22;3884;48.616;12.872;2022-08-25T04:19:58;15.50;99.90
7684;DHT22;3884;48.616;12.872;2022-08-25T04:22:25;15.40;99.90
7684;DHT22;3884;48.616;12.872;2022-08-25T04:24:51;15.40;99.90
7684;DHT22;3884;48.616;12.872;2022-08-25T04:27:20;15.40;99.90
7684;DHT22;3884;48.616;12.872;2022-08-25T04:29:47;15.50;99.90
7684;DHT22;3884;48.616;12.872;2022-08-25T04:32:13;15.50;99.90
7684;DHT22;3884;48.616;12.872;2022-08-25T04:34:40;15.50;99.90
7684;DHT22;3884;48.616;12.872;2022-08-25T04:37:08;15.50;99.90
7684;DHT22;3884;48.616;12.872;2022-08-25T04:39:35;15.50;99.90
7684;DHT22;3884;48.616;12.872;2022-08-25T04:42:02;15.40;99.90
7684;DHT22;3884;48.616;12.872;2022-08-25T04:44:31;15.40;99.90
7684;DHT22;3884;48.616;12.872;2022-08-25T04:46:59;15.40;99.90
7684;DHT22;3884;48.616;12.872;2022-08-25T04:49:26;15.50;99.90
7684;DHT22;3884;48.616;12.872;2022-08-25T04:51:53;15.40;99.90
7684;DHT22;3884;48.616;12.872;2022-08-25T04:54:21;15.40;99.90
7684;DHT22;3884;48.616;12.872;2022-08-25T04:56:50;15.40;99.90
7684;DHT22;3884;48.616;12.872;2022-08-25T04:59:17;15.50;99.90
7684;DHT22;3884;48.616;12.872;2022-08-25T05:01:46;15.50;99.90
7684;DHT22;3884;48.616;12.872;2022-08-25T05:04:18;15.40;99.90
7684;DHT22;3884;48.616;12.872;2022-08-25T05:06:45;15.40;99.90
7684;DHT22;3884;48.616;12.872;2022-08-25T05:09:12;15.40;99.90
7684;DHT22;3884;48.616;12.872;2022-08-25T05:11:39;15.50;99.90
7684;DHT22;3884;48.616;12.872;2022-08-25T05:14:06;15.60;99.90
7684;DHT22;3884;48.616;12.872;2022-08-25T05:16:37;15.60;99.90
7684;DHT22;3884;48.616;12.872;2022-08-25T05:19:06;15.80;99.90
7684;DHT22;3884;48.616;12.872;2022-08-25T05:21:33;15.90;99.90
7684;DHT22;3884;48.616;12.872;2022-08-25T05:24:00;15.80;99.90
7684;DHT22;3884;48.616;12.872;2022-08-25T05:26:29;15.70;99.90
7684;DHT22;3884;48.616;12.872;2022-08-25T05:28:57;15.70;99.90
7684;DHT22;3884;48.616;12.872;2022-08-25T05:31:25;15.70;99.90
7684;DHT22;3884;48.616;12.872;2022-08-25T05:33:52;15.80;99.90
7684;DHT22;3884;48.616;12.872;2022-08-25T05:36:22;15.90;99.90
7684;DHT22;3884;48.616;12.872;2022-08-25T05:38:49;15.90;99.90
7684;DHT22;3884;48.616;12.872;2022-08-25T05:41:18;16.00;99.90
7684;DHT22;3884;48.616;12.872;2022-08-25T05:43:47;16.10;99.90
7684;DHT22;3884;48.616;12.872;2022-08-25T05:46:16;16.20;99.90
7684;DHT22;3884;48.616;12.872;2022-08-25T05:48:44;16.20;99.90
7684;DHT22;3884;48.616;12.872;2022-08-25T05:51:11;16.20;99.90
7684;DHT22;3884;48.616;12.872;2022-08-25T05:53:42;16.30;99.90
7684;DHT22;3884;48.616;12.872;2022-08-25T05:56:10;16.20;99.90
7684;DHT22;3884;48.616;12.872;2022-08-25T05:58:39;16.30;99.90
7684;DHT22;3884;48.616;12.872;2022-08-25T06:01:07;16.30;99.90
7684;DHT22;3884;48.616;12.872;2022-08-25T06:03:51;16.50;99.90
7684;DHT22;3884;48.616;12.872;2022-08-25T06:06:19;16.50;99.90
7684;DHT22;3884;48.616;12.872;2022-08-25T06:08:47;16.50;99.90
7684;DHT22;3884;48.616;12.872;2022-08-25T06:11:14;16.60;99.90
7684;DHT22;3884;48.616;12.872;2022-08-25T06:13:42;16.70;99.90
7684;DHT22;3884;48.616;12.872;2022-08-25T06:16:10;16.90;99.90
7684;DHT22;3884;48.616;12.872;2022-08-25T06:18:37;17.00;99.90
7684;DHT22;3884;48.616;12.872;2022-08-25T06:21:09;17.10;99.90
7684;DHT22;3884;48.616;12.872;2022-08-25T06:23:37;17.20;99.90
7684;DHT22;3884;48.616;12.872;2022-08-25T06:26:06;17.30;99.90
7684;DHT22;3884;48.616;12.872;2022-08-25T06:28:35;17.40;99.90
7684;DHT22;3884;48.616;12.872;2022-08-25T06:31:02;17.50;99.90
7684;DHT22;3884;48.616;12.872;2022-08-25T06:33:29;17.60;99.90
7684;DHT22;3884;48.616;12.872;2022-08-25T06:36:02;17.80;99.90
7684;DHT22;3884;48.616;12.872;2022-08-25T06:38:30;17.90;99.90
7684;DHT22;3884;48.616;12.872;2022-08-25T06:40:56;18.00;99.90
7684;DHT22;3884;48.616;12.872;2022-08-25T06:43:25;18.10;99.90
7684;DHT22;3884;48.616;12.872;2022-08-25T06:45:52;18.20;99.90
7684;DHT22;3884;48.616;12.872;2022-08-25T06:48:19;18.40;99.90
7684;DHT22;3884;48.616;12.872;2022-08-25T06:50:46;18.50;99.90
7684;DHT22;3884;48.616;12.872;2022-08-25T06:53:13;18.60;99.90
7684;DHT22;3884;48.616;12.872;2022-08-25T06:55:39;18.70;99.90
7684;DHT22;3884;48.616;12.872;2022-08-25T06:58:07;18.70;99.90
7684;DHT22;3884;48.616;12.872;2022-08-25T07:00:36;18.70;99.90
7684;DHT22;3884;48.616;12.872;2022-08-25T07:03:03;18.80;99.90
7684;DHT22;3884;48.616;12.872;2022-08-25T07:05:30;18.90;99.90
7684;DHT22;3884;48.616;12.872;2022-08-25T07:07:57;19.00;99.90
7684;DHT22;3884;48.616;12.872;2022-08-25T07:10:24;19.10;99.90
7684;DHT22;3884;48.616;12.872;2022-08-25T07:12:51;19.20;99.90
7684;DHT22;3884;48.616;12.872;2022-08-25T07:15:18;19.30;99.90
7684;DHT22;3884;48.616;12.872;2022-08-25T07:17:47;19.40;99.90
7684;DHT22;3884;48.616;12.872;2022-08-25T07:20:14;19.50;99.90
7684;DHT22;3884;48.616;12.872;2022-08-25T07:22:41;19.70;99.90
7684;DHT22;3884;48.616;12.872;2022-08-25T07:25:08;19.80;99.90
7684;DHT22;3884;48.616;12.872;2022-08-25T07:27:37;19.90;99.90
7684;DHT22;3884;48.616;12.872;2022-08-25T07:30:06;20.20;99.90
7684;DHT22;3884;48.616;12.872;2022-08-25T07:32:33;20.30;99.90
7684;DHT22;3884;48.616;12.872;2022-08-25T07:35:01;20.50;99.90
7684;DHT22;3884;48.616;12.872;2022-08-25T07:37:44;20.80;99.90
7684;DHT22;3884;48.616;12.872;2022-08-25T07:40:14;21.00;99.90
7684;DHT22;3884;48.616;12.872;2022-08-25T07:42:42;21.20;99.90
7684;DHT22;3884;48.616;12.872;2022-08-25T07:45:10;21.40;99.90
7684;DHT22;3884;48.616;12.872;2022-08-25T07:47:37;21.60;99.90
7684;DHT22;3884;48.616;12.872;2022-08-25T07:50:08;21.80;99.90
7684;DHT22;3884;48.616;12.872;2022-08-25T07:52:36;22.10;99.90
7684;DHT22;3884;48.616;12.872;2022-08-25T07:55:04;22.30;99.90
7684;DHT22;3884;48.616;12.872;2022-08-25T07:57:32;22.40;99.90
7684;DHT22;3884;48.616;12.872;2022-08-25T07:59:59;22.60;99.90
7684;DHT22;3884;48.616;12.872;2022-08-25T08:02:26;22.80;99.90
7684;DHT22;3884;48.616;12.872;2022-08-25T08:04:53;22.90;93.40
7684;DHT22;3884;48.616;12.872;2022-08-25T08:07:24;23.20;1.60
7684;DHT22;3884;48.616;12.872;2022-08-25T08:09:51;23.30;1.00
7684;DHT22;3884;48.616;12.872;2022-08-25T08:12:19;23.50;1.00
7684;DHT22;3884;48.616;12.872;2022-08-25T08:14:45;23.80;99.90
7684;DHT22;3884;48.616;12.872;2022-08-25T08:17:13;23.90;99.90
7684;DHT22;3884;48.616;12.872;2022-08-25T08:19:39;24.10;1.00
7684;DHT22;3884;48.616;12.872;2022-08-25T08:22:06;24.20;99.90
7684;DHT22;3884;48.616;12.872;2022-08-25T08:24:37;24.20;1.00
7684;DHT22;3884;48.616;12.872;2022-08-25T08:27:05;24.30;1.00
7684;DHT22;3884;48.616;12.872;2022-08-25T08:29:33;24.40;99.90
7684;DHT22;3884;48.616;12.872;2022-08-25T08:32:00;24.50;99.90
7684;DHT22;3884;48.616;12.872;2022-08-25T08:34:27;24.50;53.40
7684;DHT22;3884;48.616;12.872;2022-08-25T08:36:55;24.70;99.90
7684;DHT22;3884;48.616;12.872;2022-08-25T08:39:22;24.50;1.00
7684;DHT22;3884;48.616;12.872;2022-08-25T08:41:59;24.60;99.90
7684;DHT22;3884;48.616;12.872;2022-08-25T08:45:15;24.90;1.00
7684;DHT22;3884;48.616;12.872;2022-08-25T08:48:09;24.90;1.00
7684;DHT22;3884;48.616;12.872;2022-08-25T08:50:44;24.90;1.00
7684;DHT22;3884;48.616;12.872;2022-08-25T08:53:17;25.10;1.00
7684;DHT22;3884;48.616;12.872;2022-08-25T08:55:48;25.20;1.00
7684;DHT22;3884;48.616;12.872;2022-08-25T08:58:20;25.30;99.90
7684;DHT22;3884;48.616;12.872;2022-08-25T09:00:49;25.30;99.90
7684;DHT22;3884;48.616;12.872;2022-08-25T09:03:28;25.40;99.90
7684;DHT22;3884;48.616;12.872;2022-08-25T09:06:01;25.40;99.90
7684;DHT22;3884;48.616;12.872;2022-08-25T09:08:28;25.60;99.90
7684;DHT22;3884;48.616;12.872;2022-08-25T09:11:01;25.90;99.90
7684;DHT22;3884;48.616;12.872;2022-08-25T09:13:43;25.60;99.90
7684;DHT22;3884;48.616;12.872;2022-08-25T09:16:14;25.10;99.90
7684;DHT22;3884;48.616;12.872;2022-08-25T09:19:13;25.30;99.90
7684;DHT22;3884;48.616;12.872;2022-08-25T09:21:49;25.60;95.70
7684;DHT22;3884;48.616;12.872;2022-08-25T09:24:30;25.70;65.30
7684;DHT22;3884;48.616;12.872;2022-08-25T09:27:07;25.40;99.90
7684;DHT22;3884;48.616;12.872;2022-08-25T09:29:48;25.60;99.90
7684;DHT22;3884;48.616;12.872;2022-08-25T09:32:17;25.70;99.90
7684;DHT22;3884;48.616;12.872;2022-08-25T09:34:46;26.00;57.70
7684;DHT22;3884;48.616;12.872;2022-08-25T09:37:14;26.20;1.00
7684;DHT22;3884;48.616;12.872;2022-08-25T09:39:41;26.00;1.00
7684;DHT22;3884;48.616;12.872;2022-08-25T09:42:08;26.00;1.00
7684;DHT22;3884;48.616;12.872;2022-08-25T09:44:40;26.10;2.20
7684;DHT22;3884;48.616;12.872;2022-08-25T09:47:18;26.20;14.30
7684;DHT22;3884;48.616;12.872;2022-08-25T09:49:48;26.50;1.00
7684;DHT22;3884;48.616;12.872;2022-08-25T09:52:23;26.80;1.00
7684;DHT22;3884;48.616;12.872;2022-08-25T09:54:51;26.80;1.00
7684;DHT22;3884;48.616;12.872;2022-08-25T09:57:35;27.00;1.00
7684;DHT22;3884;48.616;12.872;2022-08-25T10:00:14;27.20;1.00
7684;DHT22;3884;48.616;12.872;2022-08-25T10:02:42;27.30;1.00
7684;DHT22;3884;48.616;12.872;2022-08-25T10:05:21;27.60;1.00
7684;DHT22;3884;48.616;12.872;2022-08-25T10:07:51;27.30;1.00
7684;DHT22;3884;48.616;12.872;2022-08-25T10:10:23;27.10;1.00
7684;DHT22;3884;48.616;12.872;2022-08-25T10:12:53;26.70;1.00
7684;DHT22;3884;48.616;12.872;2022-08-25T10:15:27;26.40;1.00
7684;DHT22;3884;48.616;12.872;2022-08-25T10:17:55;26.20;1.00
7684;DHT22;3884;48.616;12.872;2022-08-25T10:20:26;26.00;1.00
7684;DHT22;3884;48.616;12.872;2022-08-25T10:23:09;26.10;94.80
7684;DHT22;3884;48.616;12.872;2022-08-25T10:25:43;26.10;1.00
7684;DHT22;3884;48.616;12.872;2022-08-25T10:28:15;25.90;1.00
7684;DHT22;3884;48.616;12.872;2022-08-25T10:30:56;26.10;1.00
7684;DHT22;3884;48.616;12.872;2022-08-25T10:33:32;26.10;1.00
7684;DHT22;3884;48.616;12.872;2022-08-25T10:36:05;26.10;1.00
7684;DHT22;3884;48.616;12.872;2022-08-25T10:38:39;25.90;1.00
7684;DHT22;3884;48.616;12.872;2022-08-25T10:41:28;26.00;1.00
7684;DHT22;3884;48.616;12.872;2022-08-25T10:44:07;25.90;1.00
7684;DHT22;3884;48.616;12.872;2022-08-25T10:47:11;25.90;1.00
7684;DHT22;3884;48.616;12.872;2022-08-25T10:49:45;26.30;1.00
7684;DHT22;3884;48.616;12.872;2022-08-25T10:52:16;26.60;1.00
7684;DHT22;3884;48.616;12.872;2022-08-25T10:55:00;26.40;1.00
7684;DHT22;3884;48.616;12.872;2022-08-25T10:57:35;26.40;1.00
7684;DHT22;3884;48.616;12.872;2022-08-25T11:00:06;26.50;1.00
7684;DHT22;3884;48.616;12.872;2022-08-25T11:03:12;26.60;1.00
7684;DHT22;3884;48.616;12.872;2022-08-25T11:05:44;27.00;1.00
7684;DHT22;3884;48.616;12.872;2022-08-25T11:08:16;27.00;1.00
7684;DHT22;3884;48.616;12.872;2022-08-25T11:10:48;26.80;1.00
7684;DHT22;3884;48.616;12.872;2022-08-25T11:13:22;26.50;1.00
7684;DHT22;3884;48.616;12.872;2022-08-25T11:15:53;26.60;1.00
7684;DHT22;3884;48.616;12.872;2022-08-25T11:18:24;26.60;1.00
7684;DHT22;3884;48.616;12.872;2022-08-25T11:20:58;26.50;1.00
7684;DHT22;3884;48.616;12.872;2022-08-25T11:23:30;26.30;1.00
7684;DHT22;3884;48.616;12.872;2022-08-25T11:26:02;26.30;1.00
7684;DHT22;3884;48.616;12.872;2022-08-25T11:28:38;26.50;1.00
7684;DHT22;3884;48.616;12.872;2022-08-25T11:31:06;26.60;1.00
7684;DHT22;3884;48.616;12.872;2022-08-25T11:33:35;26.50;1.00
7684;DHT22;3884;48.616;12.872;2022-08-25T11:36:11;26.30;1.00
7684;DHT22;3884;48.616;12.872;2022-08-25T11:38:53;26.40;1.00
7684;DHT22;3884;48.616;12.872;2022-08-25T11:41:28;26.10;1.00
7684;DHT22;3884;48.616;12.872;2022-08-25T11:44:18;26.20;1.00
7684;DHT22;3884;48.616;12.872;2022-08-25T11:47:03;26.10;1.00
7684;DHT22;3884;48.616;12.872;2022-08-25T11:49:49;26.20;1.00
7684;DHT22;3884;48.616;12.872;2022-08-25T11:52:45;26.20;1.00
7684;DHT22;3884;48.616;12.872;2022-08-25T11:55:17;26.30;1.00
7684;DHT22;3884;48.616;12.872;2022-08-25T11:57:46;26.40;1.00
7684;DHT22;3884;48.616;12.872;2022-08-25T12:00:34;26.40;1.00
7684;DHT22;3884;48.616;12.872;2022-08-25T12:06:30;26.60;1.00
7684;DHT22;3884;48.616;12.872;2022-08-25T12:09:19;26.80;1.00
7684;DHT22;3884;48.616;12.872;2022-08-25T12:11:51;26.90;1.00
7684;DHT22;3884;48.616;12.872;2022-08-25T12:14:43;26.90;1.00
7684;DHT22;3884;48.616;12.872;2022-08-25T12:17:22;27.10;1.00
7684;DHT22;3884;48.616;12.872;2022-08-25T12:19:57;27.20;1.00
7684;DHT22;3884;48.616;12.872;2022-08-25T12:22:55;27.30;1.00
7684;DHT22;3884;48.616;12.872;2022-08-25T12:28:46;27.70;1.00
7684;DHT22;3884;48.616;12.872;2022-08-25T12:31:29;27.70;99.90
7684;DHT22;3884;48.616;12.872;2022-08-25T12:34:08;27.70;99.90
7684;DHT22;3884;48.616;12.872;2022-08-25T12:36:54;27.70;99.90
7684;DHT22;3884;48.616;12.872;2022-08-25T12:39:29;27.90;99.90
7684;DHT22;3884;48.616;12.872;2022-08-25T12:42:00;27.70;99.90
7684;DHT22;3884;48.616;12.872;2022-08-25T12:44:40;27.50;99.90
7684;DHT22;3884;48.616;12.872;2022-08-25T12:47:24;27.40;99.90
7684;DHT22;3884;48.616;12.872;2022-08-25T12:49:53;27.50;99.90
7684;DHT22;3884;48.616;12.872;2022-08-25T12:52:39;27.40;99.90
7684;DHT22;3884;48.616;12.872;2022-08-25T12:55:10;27.20;99.90
7684;DHT22;3884;48.616;12.872;2022-08-25T12:57:40;27.20;99.90
7684;DHT22;3884;48.616;12.872;2022-08-25T13:00:16;27.20;99.90
7684;DHT22;3884;48.616;12.872;2022-08-25T13:02:57;27.20;99.90
7684;DHT22;3884;48.616;12.872;2022-08-25T13:05:44;27.30;99.90
7684;DHT22;3884;48.616;12.872;2022-08-25T13:08:34;27.20;99.90
7684;DHT22;3884;48.616;12.872;2022-08-25T13:11:10;27.30;99.90
7684;DHT22;3884;48.616;12.872;2022-08-25T13:13:47;27.30;99.90
7684;DHT22;3884;48.616;12.872;2022-08-25T13:16:18;27.30;1.00
7684;DHT22;3884;48.616;12.872;2022-08-25T13:18:46;27.30;99.90
7684;DHT22;3884;48.616;12.872;2022-08-25T13:21:15;27.40;99.90
7684;DHT22;3884;48.616;12.872;2022-08-25T13:23:45;27.20;99.90
7684;DHT22;3884;48.616;12.872;2022-08-25T13:26:20;27.40;99.90
7684;DHT22;3884;48.616;12.872;2022-08-25T13:28:50;27.50;99.90
7684;DHT22;3884;48.616;12.872;2022-08-25T13:31:20;27.40;99.90
7684;DHT22;3884;48.616;12.872;2022-08-25T13:33:52;27.40;99.90
7684;DHT22;3884;48.616;12.872;2022-08-25T13:36:19;27.60;99.90
7684;DHT22;3884;48.616;12.872;2022-08-25T13:39:12;28.00;99.90
7684;DHT22;3884;48.616;12.872;2022-08-25T13:41:45;28.20;99.90
7684;DHT22;3884;48.616;12.872;2022-08-25T13:44:14;28.10;99.90
7684;DHT22;3884;48.616;12.872;2022-08-25T13:46:41;27.50;99.90
7684;DHT22;3884;48.616;12.872;2022-08-25T13:49:10;27.80;99.90
7684;DHT22;3884;48.616;12.872;2022-08-25T13:51:48;28.10;99.90
7684;DHT22;3884;48.616;12.872;2022-08-25T13:54:25;28.50;99.90
7684;DHT22;3884;48.616;12.872;2022-08-25T13:57:03;28.60;99.90
7684;DHT22;3884;48.616;12.872;2022-08-25T13:59:35;28.50;99.90
7684;DHT22;3884;48.616;12.872;2022-08-25T14:02:03;28.10;99.90
7684;DHT22;3884;48.616;12.872;2022-08-25T14:04:42;27.60;99.90
7684;DHT22;3884;48.616;12.872;2022-08-25T14:07:25;27.70;99.90
7684;DHT22;3884;48.616;12.872;2022-08-25T14:09:55;27.50;99.90
7684;DHT22;3884;48.616;12.872;2022-08-25T14:12:30;27.30;99.90
7684;DHT22;3884;48.616;12.872;2022-08-25T14:15:00;27.10;99.90
7684;DHT22;3884;48.616;12.872;2022-08-25T14:17:27;27.10;1.00
7684;DHT22;3884;48.616;12.872;2022-08-25T14:19:54;27.40;1.00
7684;DHT22;3884;48.616;12.872;2022-08-25T14:22:22;27.60;99.90
7684;DHT22;3884;48.616;12.872;2022-08-25T14:24:51;28.10;99.90
7684;DHT22;3884;48.616;12.872;2022-08-25T14:27:18;28.60;99.90
7684;DHT22;3884;48.616;12.872;2022-08-25T14:29:47;28.90;99.90
7684;DHT22;3884;48.616;12.872;2022-08-25T14:32:14;28.60;99.90
7684;DHT22;3884;48.616;12.872;2022-08-25T14:34:42;28.70;99.90
7684;DHT22;3884;48.616;12.872;2022-08-25T14:37:13;28.70;99.90
7684;DHT22;3884;48.616;12.872;2022-08-25T14:39:41;28.70;99.90
7684;DHT22;3884;48.616;12.872;2022-08-25T14:42:08;28.80;99.90
7684;DHT22;3884;48.616;12.872;2022-08-25T14:44:36;29.00;99.90
7684;DHT22;3884;48.616;12.872;2022-08-25T14:47:05;29.20;99.90
7684;DHT22;3884;48.616;12.872;2022-08-25T14:49:36;29.50;99.90
7684;DHT22;3884;48.616;12.872;2022-08-25T14:52:15;29.70;99.90
7684;DHT22;3884;48.616;12.872;2022-08-25T14:54:43;29.40;99.90
7684;DHT22;3884;48.616;12.872;2022-08-25T14:57:11;29.20;99.90
7684;DHT22;3884;48.616;12.872;2022-08-25T14:59:38;29.20;99.90
7684;DHT22;3884;48.616;12.872;2022-08-25T15:02:07;28.90;99.90
7684;DHT22;3884;48.616;12.872;2022-08-25T15:04:34;29.10;99.90
7684;DHT22;3884;48.616;12.872;2022-08-25T15:07:02;28.70;99.90
7684;DHT22;3884;48.616;12.872;2022-08-25T15:09:49;28.70;99.90
7684;DHT22;3884;48.616;12.872;2022-08-25T15:12:15;28.60;99.90
7684;DHT22;3884;48.616;12.872;2022-08-25T15:14:42;28.70;99.90
7684;DHT22;3884;48.616;12.872;2022-08-25T15:17:11;29.00;99.90
7684;DHT22;3884;48.616;12.872;2022-08-25T15:19:38;28.90;99.90
7684;DHT22;3884;48.616;12.872;2022-08-25T15:22:06;29.30;99.90
7684;DHT22;3884;48.616;12.872;2022-08-25T15:24:32;29.40;99.90
7684;DHT22;3884;48.616;12.872;2022-08-25T15:27:02;29.50;99.90
7684;DHT22;3884;48.616;12.872;2022-08-25T15:29:30;29.60;99.90
7684;DHT22;3884;48.616;12.872;2022-08-25T15:32:00;29.80;99.90
7684;DHT22;3884;48.616;12.872;2022-08-25T15:34:29;29.60;99.90
7684;DHT22;3884;48.616;12.872;2022-08-25T15:36:57;29.60;99.90
7684;DHT22;3884;48.616;12.872;2022-08-25T15:39:25;29.80;99.50
7684;DHT22;3884;48.616;12.872;2022-08-25T15:41:52;30.20;68.40
7684;DHT22;3884;48.616;12.872;2022-08-25T15:44:19;29.90;56.50
7684;DHT22;3884;48.616;12.872;2022-08-25T15:46:46;29.60;65.30
7684;DHT22;3884;48.616;12.872;2022-08-25T15:49:13;29.60;74.20
7684;DHT22;3884;48.616;12.872;2022-08-25T15:51:41;29.70;84.90
7684;DHT22;3884;48.616;12.872;2022-08-25T15:54:09;29.50;83.90
7684;DHT22;3884;48.616;12.872;2022-08-25T15:56:38;29.20;74.20
7684;DHT22;3884;48.616;12.872;2022-08-25T15:59:05;29.00;89.60
7684;DHT22;3884;48.616;12.872;2022-08-25T16:01:32;29.30;84.60
7684;DHT22;3884;48.616;12.872;2022-08-25T16:04:00;29.50;78.10
7684;DHT22;3884;48.616;12.872;2022-08-25T16:06:27;29.50;77.70
7684;DHT22;3884;48.616;12.872;2022-08-25T16:08:55;29.40;83.00
7684;DHT22;3884;48.616;12.872;2022-08-25T16:11:25;29.60;65.00
7684;DHT22;3884;48.616;12.872;2022-08-25T16:13:53;29.60;79.10
7684;DHT22;3884;48.616;12.872;2022-08-25T16:16:22;29.40;90.30
7684;DHT22;3884;48.616;12.872;2022-08-25T16:18:50;29.30;90.10
7684;DHT22;3884;48.616;12.872;2022-08-25T16:21:20;29.70;60.60